createdAt,value
2018-02-16T00:02:07.679Z,5.10
2018-02-16T00:04:35.251Z,5.10
2018-02-16T00:07:03.555Z,5.20
2018-02-16T00:09:31.132Z,5.10
2018-02-16T00:11:58.904Z,5.20
2018-02-16T00:14:27.211Z,5.20
2018-02-16T00:16:54.781Z,5.20
2018-02-16T00:19:22.456Z,5.20
2018-02-16T00:21:50.769Z,5.20
2018-02-16T00:24:18.316Z,5.20
2018-02-16T00:26:45.880Z,5.20
2018-02-16T00:29:13.424Z,5.20
2018-02-16T00:31:40.996Z,5.10
2018-02-16T00:34:09.368Z,5.20
2018-02-16T00:53:56.236Z,5.50
2018-02-16T00:56:24.009Z,5.50
2018-02-16T00:58:52.349Z,5.50
2018-02-16T01:01:19.924Z,5.50
2018-02-16T01:03:47.616Z,5.50
2018-02-16T01:06:15.154Z,5.50
2018-02-16T01:08:42.665Z,5.50
2018-02-16T01:11:10.393Z,5.50
2018-02-16T01:13:38.687Z,5.60
2018-02-16T01:16:06.223Z,5.60
2018-02-16T01:18:33.788Z,5.60
2018-02-16T01:21:01.356Z,5.60
2018-02-16T01:23:28.928Z,5.60
2018-02-16T01:25:57.412Z,5.60
2018-02-16T01:28:24.950Z,5.60
2018-02-16T01:30:52.519Z,5.70
2018-02-16T01:33:20.325Z,5.70
2018-02-16T01:35:48.627Z,5.70
2018-02-16T01:38:16.159Z,5.70
2018-02-16T01:58:05.060Z,5.90
2018-02-16T02:00:32.591Z,5.90
2018-02-16T02:03:00.165Z,5.80
2018-02-16T02:05:28.479Z,5.80
2018-02-16T02:07:56.045Z,5.70
2018-02-16T02:10:23.579Z,5.90
2018-02-16T02:12:51.279Z,5.90
2018-02-16T02:15:18.857Z,5.90
2018-02-16T02:17:46.424Z,6.00
2018-02-16T02:20:13.970Z,6.20
2018-02-16T02:22:41.697Z,6.40
2018-02-16T02:25:09.236Z,6.50
2018-02-16T02:27:36.783Z,6.50
2018-02-16T02:30:04.295Z,6.40
2018-02-16T02:32:31.849Z,6.30
2018-02-16T02:34:59.453Z,6.30
2018-02-16T02:37:27.767Z,6.20
2018-02-16T02:39:55.307Z,6.20
2018-02-16T02:42:22.855Z,6.20
2018-02-16T03:02:11.121Z,6.20
2018-02-16T03:04:38.743Z,6.10
2018-02-16T03:07:06.317Z,6.10
2018-02-16T03:09:33.793Z,6.10
2018-02-16T03:12:01.624Z,6.10
2018-02-16T03:14:29.965Z,6.00
2018-02-16T03:16:57.531Z,6.00
2018-02-16T03:19:26.036Z,5.90
2018-02-16T03:21:53.626Z,5.90
2018-02-16T03:24:21.420Z,5.90
2018-02-16T03:26:49.021Z,5.90
2018-02-16T03:29:16.559Z,5.90
2018-02-16T03:31:44.142Z,5.90
2018-02-16T03:34:12.029Z,5.90
2018-02-16T03:36:40.327Z,5.90
2018-02-16T03:39:08.638Z,5.90
2018-02-16T03:41:36.245Z,5.90
2018-02-16T03:44:03.825Z,6.00
2018-02-16T03:46:31.297Z,6.00
2018-02-16T03:48:58.935Z,5.90
2018-02-16T03:51:26.513Z,5.90
2018-02-16T03:53:54.937Z,6.00
2018-02-16T03:56:22.545Z,5.90
2018-02-16T03:58:50.119Z,5.90
2018-02-16T04:01:17.690Z,5.90
2018-02-16T04:03:45.293Z,5.90
2018-02-16T04:06:12.860Z,5.90
2018-02-16T04:08:40.442Z,5.90
2018-02-16T04:11:09.116Z,5.90
2018-02-16T04:13:37.462Z,6.00
2018-02-16T04:16:05.041Z,6.00
2018-02-16T04:18:32.612Z,6.00
2018-02-16T04:21:00.155Z,6.00
2018-02-16T04:23:27.682Z,6.00
2018-02-16T04:25:55.336Z,5.90
2018-02-16T04:45:42.103Z,5.70
2018-02-16T04:48:10.452Z,5.70
2018-02-16T04:50:38.751Z,5.70
2018-02-16T04:53:06.283Z,5.60
2018-02-16T04:55:33.850Z,5.60
2018-02-16T04:58:01.416Z,5.70
2018-02-16T05:00:28.980Z,5.60
2018-02-16T05:02:56.549Z,5.60
2018-02-16T05:05:24.136Z,5.60
2018-02-16T05:07:51.696Z,5.50
2018-02-16T05:10:19.288Z,5.50
2018-02-16T05:12:46.848Z,5.50
2018-02-16T05:15:14.376Z,5.50
2018-02-16T05:17:42.060Z,5.50
2018-02-16T05:20:09.888Z,5.40
2018-02-16T05:22:37.428Z,5.40
2018-02-16T05:25:05.033Z,5.40
2018-02-16T05:27:32.567Z,5.40
2018-02-16T05:30:00.141Z,5.40
2018-02-16T05:32:27.874Z,5.40
2018-02-16T05:34:56.184Z,5.30
2018-02-16T05:37:23.747Z,5.30
2018-02-16T05:39:51.295Z,5.30
2018-02-16T05:42:18.860Z,5.20
2018-02-16T05:44:46.425Z,5.30
2018-02-16T05:47:14.877Z,5.30
2018-02-16T05:49:43.179Z,5.20
2018-02-16T05:52:10.789Z,5.20
2018-02-16T05:54:39.247Z,5.20
2018-02-16T05:57:06.819Z,5.20
2018-02-16T05:59:34.389Z,5.20
2018-02-16T06:02:02.731Z,5.20
2018-02-16T06:04:30.295Z,5.20
2018-02-16T06:06:57.864Z,5.20
2018-02-16T06:09:25.460Z,5.20
2018-02-16T06:11:53.000Z,5.20
2018-02-16T06:14:20.575Z,5.20
2018-02-16T06:16:48.271Z,5.20
2018-02-16T06:19:15.858Z,5.20
2018-02-16T06:36:09.752Z,5.20
2018-02-16T06:38:37.560Z,5.20
2018-02-16T06:41:05.495Z,5.10
2018-02-16T06:43:33.064Z,5.20
2018-02-16T06:46:00.630Z,5.20
2018-02-16T06:48:28.252Z,5.20
2018-02-16T06:50:55.791Z,5.20
2018-02-16T06:53:23.445Z,5.20
2018-02-16T06:55:51.002Z,5.20
2018-02-16T06:58:18.540Z,5.20
2018-02-16T07:00:46.111Z,5.10
2018-02-16T07:03:13.651Z,5.10
2018-02-16T07:05:41.228Z,5.20
2018-02-16T07:08:09.552Z,5.20
2018-02-16T07:10:37.080Z,5.20
2018-02-16T07:13:04.656Z,5.20
2018-02-16T07:15:32.182Z,5.20
2018-02-16T07:17:59.740Z,5.20
2018-02-16T07:20:27.304Z,5.20
2018-02-16T07:22:55.973Z,5.30
2018-02-16T07:25:24.275Z,5.30
2018-02-16T07:27:52.075Z,5.20
2018-02-16T07:30:20.548Z,5.30
2018-02-16T07:32:48.881Z,5.30
2018-02-16T07:35:16.417Z,5.30
2018-02-16T07:37:44.063Z,5.30
2018-02-16T07:40:11.595Z,5.40
2018-02-16T07:42:39.941Z,5.40
2018-02-16T07:45:07.510Z,5.40
2018-02-16T07:47:35.081Z,5.50
2018-02-16T07:50:02.584Z,5.40
2018-02-16T07:52:30.169Z,5.40
2018-02-16T07:54:57.702Z,5.40
2018-02-16T07:57:25.235Z,5.40
2018-02-16T07:59:52.829Z,5.40
2018-02-16T08:02:20.360Z,5.50
2018-02-16T08:04:48.658Z,5.50
2018-02-16T08:07:16.337Z,5.60
2018-02-16T08:09:43.809Z,5.60
2018-02-16T08:12:12.096Z,5.70
2018-02-16T08:14:39.692Z,5.60
2018-02-16T08:17:07.261Z,5.70
2018-02-16T08:19:35.557Z,5.70
2018-02-16T08:22:03.262Z,5.70
2018-02-16T08:24:31.598Z,5.70
2018-02-16T08:26:59.174Z,5.70
2018-02-16T08:29:26.809Z,5.70
2018-02-16T08:31:55.140Z,5.70
2018-02-16T08:34:22.699Z,5.70
2018-02-16T08:36:50.303Z,5.70
2018-02-16T08:39:17.836Z,5.80
2018-02-16T08:41:45.368Z,5.80
2018-02-16T08:44:12.923Z,5.80
2018-02-16T08:46:40.493Z,5.90
2018-02-16T08:49:07.961Z,5.90
2018-02-16T08:51:35.736Z,6.00
2018-02-16T08:54:04.068Z,6.10
2018-02-16T08:56:31.641Z,6.00
2018-02-16T08:58:59.999Z,6.20
2018-02-16T09:01:28.328Z,6.20
2018-02-16T09:03:55.876Z,6.20
2018-02-16T09:06:23.463Z,6.20
2018-02-16T09:08:51.002Z,6.20
2018-02-16T09:11:19.300Z,6.20
2018-02-16T09:13:46.945Z,6.20
2018-02-16T09:16:14.517Z,6.30
2018-02-16T09:18:42.047Z,6.20
2018-02-16T09:21:09.920Z,6.30
2018-02-16T09:23:37.429Z,6.30
2018-02-16T09:26:05.469Z,6.30
2018-02-16T09:28:33.052Z,6.30
2018-02-16T09:31:00.883Z,6.30
2018-02-16T09:33:28.452Z,6.40
2018-02-16T09:35:57.776Z,6.40
2018-02-16T09:38:25.289Z,6.40
2018-02-16T09:40:52.843Z,6.40
2018-02-16T09:43:21.416Z,6.50
2018-02-16T09:45:49.716Z,6.60
2018-02-16T09:48:17.248Z,6.50
2018-02-16T09:50:44.853Z,6.60
2018-02-16T09:53:12.432Z,6.60
2018-02-16T09:55:40.006Z,6.50
2018-02-16T09:58:07.606Z,6.60
2018-02-16T10:00:35.172Z,6.70
2018-02-16T10:03:02.744Z,6.90
2018-02-16T10:05:31.088Z,6.80
2018-02-16T10:07:58.623Z,6.80
2018-02-16T10:10:26.155Z,6.80
2018-02-16T10:12:53.920Z,6.90
2018-02-16T10:15:21.468Z,6.90
2018-02-16T10:17:48.999Z,6.90
2018-02-16T10:20:16.786Z,6.90
2018-02-16T10:22:44.319Z,6.90
2018-02-16T10:25:11.885Z,7.00
2018-02-16T10:27:39.657Z,7.10
2018-02-16T10:30:07.996Z,7.00
2018-02-16T10:32:35.464Z,7.00
2018-02-16T10:35:04.091Z,6.80
2018-02-16T10:37:31.622Z,6.80
2018-02-16T10:39:59.184Z,6.90
2018-02-16T10:42:26.784Z,6.90
2018-02-16T10:44:54.311Z,6.90
2018-02-16T10:47:21.854Z,7.00
2018-02-16T10:49:49.542Z,7.10
2018-02-16T10:52:17.070Z,7.20
2018-02-16T10:54:44.636Z,7.40
2018-02-16T10:57:12.290Z,7.40
2018-02-16T10:59:39.820Z,7.40
2018-02-16T11:02:24.272Z,7.40
2018-02-16T11:04:57.596Z,7.50
2018-02-16T11:07:30.904Z,7.60
2018-02-16T11:09:58.491Z,7.60
2018-02-16T11:12:26.795Z,7.60
2018-02-16T11:14:54.340Z,7.60
2018-02-16T11:17:21.858Z,7.50
2018-02-16T11:19:50.196Z,7.50
2018-02-16T11:22:17.804Z,7.40
2018-02-16T11:24:45.341Z,7.50
2018-02-16T11:27:12.880Z,7.40
2018-02-16T11:29:40.444Z,7.40
2018-02-16T11:32:08.013Z,7.30
2018-02-16T11:34:35.607Z,7.30
2018-02-16T11:37:03.959Z,7.20
2018-02-16T11:39:31.531Z,7.20
2018-02-16T11:41:59.058Z,7.20
2018-02-16T11:44:26.887Z,7.30
2018-02-16T11:46:54.357Z,7.30
2018-02-16T11:49:21.921Z,7.40
2018-02-16T11:51:49.501Z,7.40
2018-02-16T11:54:17.060Z,7.40
2018-02-16T11:56:45.358Z,7.50
2018-02-16T11:59:13.068Z,7.50
2018-02-16T12:01:41.525Z,7.70
2018-02-16T12:04:24.051Z,7.80
2018-02-16T12:06:51.620Z,7.70
2018-02-16T12:09:19.201Z,7.80
2018-02-16T12:11:47.133Z,7.80
2018-02-16T12:14:14.675Z,7.80
2018-02-16T12:16:42.213Z,7.90
2018-02-16T12:19:09.968Z,8.00
2018-02-16T12:21:37.504Z,8.10
2018-02-16T12:24:05.032Z,8.20
2018-02-16T12:26:32.632Z,8.10
2018-02-16T12:29:00.933Z,8.00
2018-02-16T12:31:28.468Z,8.00
2018-02-16T12:33:56.153Z,8.00
2018-02-16T12:36:23.720Z,8.20
2018-02-16T12:38:52.058Z,8.20
2018-02-16T12:41:19.620Z,8.20
2018-02-16T12:43:47.130Z,8.30
2018-02-16T12:46:14.688Z,8.30
2018-02-16T12:48:42.251Z,8.40
2018-02-16T12:51:09.813Z,8.40
2018-02-16T12:53:38.115Z,8.30
2018-02-16T12:56:06.020Z,8.30
2018-02-16T12:58:34.356Z,8.20
2018-02-16T13:01:01.929Z,8.20
2018-02-16T13:03:29.583Z,8.00
2018-02-16T13:05:57.115Z,7.90
2018-02-16T13:08:25.448Z,7.80
2018-02-16T13:10:53.048Z,7.80
2018-02-16T13:13:20.583Z,7.70
2018-02-16T13:15:48.162Z,7.70
2018-02-16T13:18:16.622Z,7.50
2018-02-16T13:20:44.146Z,7.50
2018-02-16T13:23:11.714Z,7.60
2018-02-16T13:25:39.271Z,7.50
2018-02-16T13:28:06.800Z,7.50
2018-02-16T13:30:34.376Z,7.40
2018-02-16T13:33:01.980Z,7.50
2018-02-16T13:35:29.552Z,7.60
2018-02-16T13:37:57.098Z,7.70
2018-02-16T13:40:24.661Z,7.90
2018-02-16T13:42:52.932Z,8.10
2018-02-16T13:45:21.264Z,8.10
2018-02-16T13:47:48.823Z,8.10
2018-02-16T13:50:16.387Z,8.20
2018-02-16T13:52:44.678Z,8.40
2018-02-16T13:55:12.240Z,8.40
2018-02-16T13:57:39.713Z,8.60
2018-02-16T14:00:07.235Z,8.80
2018-02-16T14:02:34.892Z,8.70
2018-02-16T14:05:02.423Z,8.60
2018-02-16T14:07:29.889Z,8.60
2018-02-16T14:09:57.495Z,8.50
2018-02-16T14:12:25.061Z,8.30
2018-02-16T14:14:52.626Z,8.10
2018-02-16T14:17:20.993Z,7.80
2018-02-16T14:19:49.337Z,7.80
2018-02-16T14:22:16.867Z,7.80
2018-02-16T14:24:44.427Z,7.80
2018-02-16T14:27:11.967Z,7.80
2018-02-16T14:29:39.556Z,7.70
2018-02-16T14:32:07.248Z,7.70
2018-02-16T14:34:34.816Z,7.70
2018-02-16T14:37:03.181Z,7.50
2018-02-16T14:39:31.719Z,7.40
2018-02-16T14:41:59.251Z,7.40
2018-02-16T14:44:26.814Z,7.40
2018-02-16T14:46:54.552Z,7.40
2018-02-16T14:49:22.144Z,7.40
2018-02-16T14:51:49.750Z,7.50
2018-02-16T14:54:17.692Z,7.50
2018-02-16T14:56:45.265Z,7.50
2018-02-16T14:59:13.571Z,7.60
2018-02-16T15:01:41.163Z,7.50
2018-02-16T15:04:08.687Z,7.60
2018-02-16T15:06:36.252Z,7.60
2018-02-16T15:09:04.122Z,7.50
2018-02-16T15:11:32.464Z,7.60
2018-02-16T15:14:00.017Z,7.60
2018-02-16T15:16:28.705Z,7.70
2018-02-16T15:18:56.276Z,7.70
2018-02-16T15:21:23.819Z,7.80
2018-02-16T15:23:52.466Z,7.80
2018-02-16T15:26:19.952Z,7.70
2018-02-16T15:28:47.417Z,7.70
2018-02-16T15:31:15.376Z,7.70
2018-02-16T15:33:42.959Z,7.70
2018-02-16T15:36:10.526Z,7.70
2018-02-16T15:38:38.103Z,7.70
2018-02-16T15:41:05.700Z,7.70
2018-02-16T15:43:33.214Z,7.70
2018-02-16T15:46:00.965Z,7.60
2018-02-16T15:48:29.266Z,7.50
2018-02-16T15:50:56.800Z,7.50
2018-02-16T15:53:24.650Z,7.40
2018-02-16T15:55:52.179Z,7.30
2018-02-16T15:58:19.719Z,7.20
2018-02-16T16:00:47.552Z,7.20
2018-02-16T16:03:15.851Z,7.00
2018-02-16T16:05:43.428Z,7.00
2018-02-16T16:08:11.357Z,7.00
2018-02-16T16:10:38.879Z,6.90
2018-02-16T16:13:06.453Z,6.90
2018-02-16T16:15:34.823Z,6.70
2018-02-16T16:18:02.357Z,6.70
2018-02-16T16:20:29.891Z,6.70
2018-02-16T16:22:57.455Z,6.60
2018-02-16T16:25:24.991Z,6.60
2018-02-16T16:27:52.557Z,6.60
2018-02-16T16:30:20.144Z,6.60
2018-02-16T16:32:47.680Z,6.60
2018-02-16T16:35:15.224Z,6.60
2018-02-16T16:37:42.768Z,6.60
2018-02-16T16:40:10.307Z,6.50
2018-02-16T16:42:37.880Z,6.50
2018-02-16T16:45:05.443Z,6.50
2018-02-16T16:47:33.071Z,6.50
2018-02-16T16:50:00.600Z,6.40
2018-02-16T16:52:28.424Z,6.50
2018-02-16T16:54:56.759Z,6.40
2018-02-16T16:57:24.327Z,6.40
2018-02-16T16:59:52.871Z,6.40
2018-02-16T17:02:20.436Z,6.40
2018-02-16T17:04:48.788Z,6.30
2018-02-16T17:07:16.389Z,6.30
2018-02-16T17:09:43.924Z,6.20
2018-02-16T17:12:11.452Z,6.20
2018-02-16T17:14:39.022Z,6.20
2018-02-16T17:17:06.555Z,6.10
2018-02-16T17:19:34.099Z,6.10
2018-02-16T17:22:01.693Z,6.10
2018-02-16T17:24:29.244Z,6.10
2018-02-16T17:26:57.559Z,6.00
2018-02-16T17:29:25.423Z,6.00
2018-02-16T17:31:52.953Z,6.00
2018-02-16T17:34:20.529Z,6.00
2018-02-16T17:36:48.262Z,6.00
2018-02-16T17:39:15.792Z,6.00
2018-02-16T17:41:43.322Z,6.00
2018-02-16T17:44:10.921Z,6.00
2018-02-16T17:46:39.271Z,6.00
2018-02-16T17:49:06.840Z,6.00
2018-02-16T17:51:35.369Z,6.00
2018-02-16T17:54:02.937Z,5.90
2018-02-16T17:56:31.173Z,6.00
2018-02-16T17:58:58.782Z,5.90
2018-02-16T18:01:26.315Z,6.00
2018-02-16T18:03:53.911Z,6.00
2018-02-16T18:06:21.856Z,6.00
2018-02-16T18:08:49.321Z,6.00
2018-02-16T18:11:16.856Z,5.90
2018-02-16T18:13:44.453Z,5.90
2018-02-16T18:16:11.980Z,5.90
2018-02-16T18:18:39.572Z,5.90
2018-02-16T18:21:07.168Z,6.00
2018-02-16T18:23:34.732Z,6.00
2018-02-16T18:26:03.254Z,5.90
2018-02-16T18:28:31.273Z,5.90
2018-02-16T18:30:59.570Z,5.90
2018-02-16T18:33:27.885Z,5.90
2018-02-16T18:35:55.426Z,5.90
2018-02-16T18:38:22.960Z,5.90
2018-02-16T18:40:50.533Z,5.90
2018-02-16T18:43:18.128Z,5.90
2018-02-16T18:45:46.431Z,5.80
2018-02-16T18:48:13.996Z,5.80
2018-02-16T18:50:41.594Z,5.80
2018-02-16T18:53:09.127Z,5.80
2018-02-16T18:55:36.696Z,5.80
2018-02-16T18:58:04.252Z,5.80
2018-02-16T19:00:32.691Z,5.80
2018-02-16T19:03:00.259Z,5.80
2018-02-16T19:05:28.779Z,5.80
2018-02-16T19:07:56.365Z,5.80
2018-02-16T19:10:24.072Z,5.80
2018-02-16T19:12:52.426Z,5.80
2018-02-16T19:15:20.792Z,5.80
2018-02-16T19:17:49.149Z,5.70
2018-02-16T19:20:18.008Z,5.80
2018-02-16T19:22:45.596Z,5.70
2018-02-16T19:25:13.169Z,5.70
2018-02-16T19:27:40.833Z,5.70
2018-02-16T19:30:08.388Z,5.80
2018-02-16T19:32:40.848Z,5.80
2018-02-16T19:35:08.562Z,5.80
2018-02-16T19:37:36.083Z,5.70
2018-02-16T19:40:03.613Z,5.70
2018-02-16T19:42:31.411Z,5.60
2018-02-16T19:44:59.089Z,5.60
2018-02-16T19:47:27.394Z,5.60
2018-02-16T19:49:55.245Z,5.60
2018-02-16T19:52:22.832Z,5.60
2018-02-16T19:54:50.333Z,5.60
2018-02-16T19:57:18.040Z,5.60
2018-02-16T19:59:46.351Z,5.60
2018-02-16T20:02:13.921Z,5.60
2018-02-16T20:04:41.683Z,5.60
2018-02-16T20:07:09.219Z,5.60
2018-02-16T20:09:36.758Z,5.60
2018-02-16T20:12:04.499Z,5.60
2018-02-16T20:14:32.043Z,5.60
2018-02-16T20:16:59.583Z,5.60
2018-02-16T20:19:27.458Z,5.60
2018-02-16T20:21:55.767Z,5.70
2018-02-16T20:24:23.584Z,5.60
2018-02-16T20:26:51.961Z,5.60
2018-02-16T20:29:19.563Z,5.60
2018-02-16T20:31:47.095Z,5.60
2018-02-16T20:34:15.571Z,5.60
2018-02-16T20:36:43.107Z,5.60
2018-02-16T20:39:10.681Z,5.70
2018-02-16T20:41:39.008Z,5.60
2018-02-16T20:44:06.543Z,5.60
2018-02-16T20:46:34.959Z,5.50
2018-02-16T20:49:03.339Z,5.40
2018-02-16T20:51:30.875Z,5.40
2018-02-16T20:53:58.416Z,5.40
2018-02-16T20:56:25.992Z,5.40
2018-02-16T20:58:53.536Z,5.40
2018-02-16T21:01:21.113Z,5.40
2018-02-16T21:03:48.823Z,5.40
2018-02-16T21:06:16.400Z,5.40
2018-02-16T21:08:43.949Z,5.40
2018-02-16T21:11:11.524Z,5.40
2018-02-16T21:13:39.100Z,5.40
2018-02-16T21:16:06.644Z,5.50
2018-02-16T21:18:34.220Z,5.50
2018-02-16T21:21:01.760Z,5.50
2018-02-16T21:23:29.304Z,5.50
2018-02-16T21:25:56.860Z,5.50
2018-02-16T21:28:24.470Z,5.50
2018-02-16T21:30:52.133Z,5.50
2018-02-16T21:33:19.876Z,5.50
2018-02-16T21:35:47.460Z,5.50
2018-02-16T21:38:15.771Z,5.40
2018-02-16T21:40:43.325Z,5.40
2018-02-16T21:43:10.830Z,5.40
2018-02-16T21:45:38.388Z,5.40
2018-02-16T21:48:06.518Z,5.40
2018-02-16T21:50:34.851Z,5.40
2018-02-16T21:53:02.429Z,5.40
2018-02-16T21:55:30.110Z,5.40
2018-02-16T21:57:57.648Z,5.50
2018-02-16T22:00:25.290Z,5.40
2018-02-16T22:02:52.908Z,5.40
2018-02-16T22:05:20.478Z,5.40
2018-02-16T22:07:48.052Z,5.40
2018-02-16T22:10:15.803Z,5.40
2018-02-16T22:12:43.398Z,5.40
2018-02-16T22:15:10.976Z,5.40
2018-02-16T22:17:38.548Z,5.40
2018-02-16T22:20:06.079Z,5.50
2018-02-16T22:22:33.661Z,5.40
2018-02-16T22:25:02.000Z,5.40
2018-02-16T22:27:29.567Z,5.40
2018-02-16T22:29:57.864Z,5.40
2018-02-16T22:32:25.583Z,5.40
2018-02-16T22:34:53.148Z,5.40
2018-02-16T22:37:20.721Z,5.40
2018-02-16T22:39:48.280Z,5.40
2018-02-16T22:42:15.860Z,5.40
2018-02-16T22:44:43.439Z,5.30
2018-02-16T22:47:11.759Z,5.30
2018-02-16T22:49:40.061Z,5.30
2018-02-16T22:52:07.595Z,5.30
2018-02-16T22:54:35.181Z,5.30
2018-02-16T22:57:02.731Z,5.30
2018-02-16T22:59:30.312Z,5.30
2018-02-16T23:01:57.842Z,5.30
2018-02-16T23:04:25.449Z,5.30
2018-02-16T23:06:52.987Z,5.40
2018-02-16T23:09:20.628Z,5.30
2018-02-16T23:11:48.196Z,5.40
2018-02-16T23:14:15.764Z,5.30
2018-02-16T23:16:44.167Z,5.30
2018-02-16T23:19:11.709Z,5.20
2018-02-16T23:21:39.285Z,5.30
2018-02-16T23:24:06.852Z,5.30
2018-02-16T23:26:35.159Z,5.30
2018-02-16T23:29:02.703Z,5.30
2018-02-16T23:31:30.288Z,5.30
2018-02-16T23:33:58.569Z,5.30
2018-02-16T23:36:26.875Z,5.30
2018-02-16T23:38:54.680Z,5.30
2018-02-16T23:41:22.252Z,5.20
2018-02-16T23:43:49.744Z,5.10
2018-02-16T23:46:17.341Z,5.10
2018-02-16T23:48:44.875Z,5.10
2018-02-16T23:51:12.412Z,5.10
2018-02-16T23:53:40.131Z,5.10
2018-02-16T23:56:07.664Z,5.00
2018-02-16T23:58:35.241Z,5.00
